createdAt,value
2018-09-19T00:02:09.359Z,60322.69
2018-09-19T00:04:37.539Z,60317.61
2018-09-19T00:07:05.713Z,60317.61
2018-09-19T00:09:33.899Z,60322.69
2018-09-19T00:12:02.119Z,60326.75
2018-09-19T00:14:30.327Z,60302.37
2018-09-19T00:16:58.498Z,60321.67
2018-09-19T00:19:26.700Z,60320.66
2018-09-19T00:21:54.947Z,60306.43
2018-09-19T00:24:23.043Z,60318.62
2018-09-19T00:26:51.250Z,60303.38
2018-09-19T00:29:19.431Z,60316.59
2018-09-19T00:31:47.621Z,60334.88
2018-09-19T00:34:15.813Z,60308.46
2018-09-19T00:36:43.982Z,60333.87
2018-09-19T00:39:12.165Z,60322.69
2018-09-19T00:41:40.344Z,60325.74
2018-09-19T00:44:08.520Z,60309.48
2018-09-19T00:46:36.699Z,60327.77
2018-09-19T00:49:04.895Z,60326.75
2018-09-19T00:51:33.085Z,60315.57
2018-09-19T00:54:01.274Z,60329.80
2018-09-19T00:56:29.480Z,60299.32
2018-09-19T00:58:57.655Z,60325.74
2018-09-19T01:01:25.855Z,60327.77
2018-09-19T01:03:54.035Z,60316.59
2018-09-19T01:06:22.218Z,60316.59
2018-09-19T01:08:50.394Z,60355.21
2018-09-19T01:11:18.637Z,60350.12
2018-09-19T01:13:46.767Z,60327.77
2018-09-19T01:16:14.930Z,60335.90
2018-09-19T01:18:43.126Z,60330.82
2018-09-19T01:21:11.314Z,60354.19
2018-09-19T01:23:39.529Z,60331.84
2018-09-19T01:26:07.725Z,60349.11
2018-09-19T01:28:35.896Z,60338.95
2018-09-19T01:31:04.074Z,60346.06
2018-09-19T01:33:32.252Z,60342.00
2018-09-19T01:36:00.473Z,60333.87
2018-09-19T01:38:28.647Z,60358.25
2018-09-19T01:40:57.035Z,60327.77
2018-09-19T01:43:25.222Z,60354.19
2018-09-19T01:45:53.394Z,60327.77
2018-09-19T01:48:21.589Z,60364.35
2018-09-19T01:50:49.768Z,60353.18
2018-09-19T01:53:17.963Z,60337.93
2018-09-19T01:55:46.133Z,60362.32
2018-09-19T01:58:14.329Z,60352.16
2018-09-19T02:00:42.521Z,60356.22
2018-09-19T02:03:10.695Z,60350.12
2018-09-19T02:05:38.883Z,60338.95
2018-09-19T02:08:07.112Z,60338.95
2018-09-19T02:10:35.263Z,60360.29
2018-09-19T02:13:03.553Z,60336.91
2018-09-19T02:15:31.837Z,60349.11
2018-09-19T02:18:00.024Z,60350.12
2018-09-19T02:20:28.254Z,60354.19
2018-09-19T02:22:56.458Z,60363.34
2018-09-19T02:25:24.665Z,60353.18
2018-09-19T02:27:52.948Z,60323.71
2018-09-19T02:30:21.152Z,60355.21
2018-09-19T02:32:49.351Z,60344.03
2018-09-19T02:35:17.572Z,60350.12
2018-09-19T02:37:45.781Z,60361.30
2018-09-19T02:40:13.979Z,60346.06
2018-09-19T02:42:42.259Z,60354.19
2018-09-19T02:45:10.448Z,60346.06
2018-09-19T02:47:38.697Z,60359.27
2018-09-19T02:50:06.900Z,60363.34
2018-09-19T02:52:35.103Z,60355.21
2018-09-19T02:55:03.306Z,60353.18
2018-09-19T02:57:31.502Z,60369.43
2018-09-19T02:59:59.680Z,60356.22
2018-09-19T03:02:27.865Z,60364.35
2018-09-19T03:04:56.062Z,60350.12
2018-09-19T03:07:24.311Z,60351.14
2018-09-19T03:09:52.506Z,60364.35
2018-09-19T03:12:20.797Z,60339.96
2018-09-19T03:14:49.015Z,60348.09
2018-09-19T03:17:17.296Z,60347.08
2018-09-19T03:19:45.418Z,60355.21
2018-09-19T03:22:13.603Z,60360.29
2018-09-19T03:24:41.805Z,60338.95
2018-09-19T03:27:10.009Z,60362.32
2018-09-19T03:29:38.202Z,60359.27
2018-09-19T03:32:06.417Z,60350.12
2018-09-19T03:34:34.610Z,60371.46
2018-09-19T03:37:02.790Z,60367.40
2018-09-19T03:39:31.028Z,60375.53
2018-09-19T03:41:59.229Z,60372.48
2018-09-19T03:44:27.402Z,60376.55
2018-09-19T03:46:57.805Z,60361.30
2018-09-19T03:49:25.996Z,60353.18
2018-09-19T03:51:54.456Z,60379.59
2018-09-19T03:54:22.653Z,60361.30
2018-09-19T03:56:51.009Z,60374.52
2018-09-19T03:59:19.309Z,60345.04
2018-09-19T04:01:47.475Z,60359.27
2018-09-19T04:04:15.689Z,60348.09
2018-09-19T04:06:43.888Z,60366.39
2018-09-19T04:09:13.305Z,60355.21
2018-09-19T04:11:41.697Z,60364.35
2018-09-19T04:14:10.995Z,60353.18
2018-09-19T04:16:39.370Z,60366.39
2018-09-19T04:19:07.639Z,60370.45
2018-09-19T04:21:40.232Z,60362.32
2018-09-19T04:24:08.651Z,60345.04
2018-09-19T04:26:36.860Z,60379.59
2018-09-19T04:29:05.053Z,60371.46
2018-09-19T04:31:33.284Z,60385.69
2018-09-19T04:34:01.466Z,60365.37
2018-09-19T04:36:29.656Z,60365.37
2018-09-19T04:38:57.854Z,60379.59
2018-09-19T04:41:26.054Z,60367.40
2018-09-19T04:43:54.316Z,60359.27
2018-09-19T04:46:22.486Z,60370.45
2018-09-19T04:48:50.734Z,60371.46
2018-09-19T04:51:19.194Z,60333.87
2018-09-19T04:53:47.485Z,60368.42
2018-09-19T04:56:15.663Z,60371.46
2018-09-19T04:58:44.141Z,60340.98
2018-09-19T05:01:12.321Z,60388.74
2018-09-19T05:03:40.522Z,60358.25
2018-09-19T05:06:08.723Z,60375.53
2018-09-19T05:08:36.915Z,60368.42
2018-09-19T05:11:05.138Z,60358.25
2018-09-19T05:13:33.332Z,60375.53
2018-09-19T05:16:01.524Z,60379.59
2018-09-19T05:18:29.739Z,60389.76
2018-09-19T05:20:57.922Z,60380.61
2018-09-19T05:23:26.128Z,60397.89
2018-09-19T05:25:54.294Z,60372.48
2018-09-19T05:28:22.538Z,60376.55
2018-09-19T05:30:50.855Z,60374.52
2018-09-19T05:33:19.313Z,60374.52
2018-09-19T05:35:47.576Z,60364.35
2018-09-19T05:38:15.766Z,60405.00
2018-09-19T05:40:43.953Z,60348.09
2018-09-19T05:43:12.163Z,60375.53
2018-09-19T05:45:40.358Z,60359.27
2018-09-19T05:48:08.627Z,60360.29
2018-09-19T05:50:37.123Z,60380.61
2018-09-19T05:53:05.311Z,60371.46
2018-09-19T05:55:33.508Z,60378.58
2018-09-19T05:58:01.731Z,60367.40
2018-09-19T06:00:29.979Z,60365.37
2018-09-19T06:02:58.154Z,60370.45
2018-09-19T06:05:26.717Z,60371.46
2018-09-19T06:07:54.900Z,60373.50
2018-09-19T06:10:23.097Z,60380.61
2018-09-19T06:12:51.306Z,60366.39
2018-09-19T06:15:19.517Z,60368.42
2018-09-19T06:17:47.706Z,60349.11
2018-09-19T06:20:15.899Z,60351.14
2018-09-19T06:22:44.085Z,60363.34
2018-09-19T06:25:12.301Z,60347.08
2018-09-19T06:27:40.490Z,60370.45
2018-09-19T06:30:08.707Z,60364.35
2018-09-19T06:32:36.896Z,60380.61
2018-09-19T06:35:05.539Z,60379.59
2018-09-19T06:37:33.723Z,60355.21
2018-09-19T06:40:01.977Z,60369.43
2018-09-19T06:42:30.120Z,60347.08
2018-09-19T06:44:58.325Z,60376.55
2018-09-19T06:47:26.539Z,60363.34
2018-09-19T06:49:54.864Z,60356.22
2018-09-19T06:52:23.254Z,60362.32
2018-09-19T06:54:51.405Z,60351.14
2018-09-19T06:57:19.588Z,60346.06
2018-09-19T06:59:47.815Z,60355.21
2018-09-19T07:02:15.937Z,60354.19
2018-09-19T07:04:44.132Z,60319.64
2018-09-19T07:07:12.304Z,60346.06
2018-09-19T07:09:40.618Z,60349.11
2018-09-19T07:12:08.806Z,60350.12
2018-09-19T07:14:36.991Z,60346.06
2018-09-19T07:17:05.227Z,60343.01
2018-09-19T07:19:33.414Z,60339.96
2018-09-19T07:22:01.649Z,60355.21
2018-09-19T07:24:29.810Z,60340.98
2018-09-19T07:26:58.009Z,60334.88
2018-09-19T07:29:26.176Z,60344.03
2018-09-19T07:31:54.367Z,60336.91
2018-09-19T07:34:22.557Z,60348.09
2018-09-19T07:36:50.743Z,60333.87
2018-09-19T07:39:18.982Z,60350.12
2018-09-19T07:41:47.158Z,60340.98
2018-09-19T07:44:15.351Z,60336.91
2018-09-19T07:46:43.566Z,60322.69
2018-09-19T07:49:11.720Z,60331.84
2018-09-19T07:51:39.892Z,60329.80
2018-09-19T07:54:08.080Z,60311.51
2018-09-19T07:56:36.253Z,60313.54
2018-09-19T07:59:04.433Z,60328.79
2018-09-19T08:01:32.628Z,60300.34
2018-09-19T08:04:00.811Z,60321.67
2018-09-19T08:06:28.991Z,60285.09
2018-09-19T08:08:57.213Z,60305.41
2018-09-19T08:11:25.424Z,60326.75
2018-09-19T08:13:53.595Z,60328.79
2018-09-19T08:16:21.775Z,60295.25
2018-09-19T08:18:49.987Z,60298.30
2018-09-19T08:21:18.147Z,60284.07
2018-09-19T08:23:46.316Z,60299.32
2018-09-19T08:26:14.492Z,60312.53
2018-09-19T08:28:42.675Z,60304.40
2018-09-19T08:31:10.907Z,60275.95
2018-09-19T08:33:39.097Z,60277.98
2018-09-19T08:36:07.284Z,60312.53
2018-09-19T08:38:35.555Z,60291.19
2018-09-19T08:41:03.764Z,60281.03
2018-09-19T08:43:31.956Z,60290.17
2018-09-19T08:46:00.147Z,60292.21
2018-09-19T08:48:28.326Z,60273.91
2018-09-19T08:50:56.517Z,60312.53
2018-09-19T08:53:24.717Z,60269.85
2018-09-19T08:55:52.923Z,60272.90
2018-09-19T08:58:21.083Z,60271.88
2018-09-19T09:00:49.276Z,60271.88
2018-09-19T09:03:17.467Z,60262.74
2018-09-19T09:05:45.667Z,60252.57
2018-09-19T09:08:13.855Z,60278.99
2018-09-19T09:10:42.053Z,60264.77
2018-09-19T09:13:10.241Z,60264.77
2018-09-19T09:15:38.440Z,60269.85
2018-09-19T09:18:06.790Z,60262.74
2018-09-19T09:20:35.020Z,60243.43
2018-09-19T09:23:03.138Z,60245.46
2018-09-19T09:25:31.317Z,60244.45
2018-09-19T09:27:59.519Z,60223.11
2018-09-19T09:30:27.745Z,60221.07
2018-09-19T09:32:55.945Z,60218.03
2018-09-19T09:35:24.140Z,60221.07
2018-09-19T09:37:52.327Z,60214.98
2018-09-19T09:40:20.621Z,60211.93
2018-09-19T09:42:48.756Z,60195.67
2018-09-19T09:45:16.945Z,60197.70
2018-09-19T09:47:45.117Z,60177.38
2018-09-19T09:50:13.343Z,60196.69
2018-09-19T09:52:41.684Z,60171.29
2018-09-19T09:55:09.912Z,60173.32
2018-09-19T09:57:38.051Z,60175.35
2018-09-19T10:00:06.820Z,60177.38
2018-09-19T10:02:35.005Z,60156.04
2018-09-19T10:05:03.181Z,60164.17
2018-09-19T10:07:31.350Z,60157.06
2018-09-19T10:09:59.515Z,60142.83
2018-09-19T10:12:27.707Z,60142.83
2018-09-19T10:14:55.879Z,60149.95
2018-09-19T10:17:24.656Z,60151.98
2018-09-19T10:19:53.039Z,60181.45
2018-09-19T10:22:21.215Z,60179.41
2018-09-19T10:24:49.390Z,60165.19
2018-09-19T10:27:17.583Z,60165.19
2018-09-19T10:29:45.829Z,60178.40
2018-09-19T10:32:13.960Z,60184.49
2018-09-19T10:34:42.155Z,60190.59
2018-09-19T10:37:10.331Z,60182.46
2018-09-19T10:39:38.511Z,60174.33
2018-09-19T10:42:06.707Z,60171.29
2018-09-19T10:44:34.870Z,60186.52
2018-09-19T10:47:03.059Z,60183.48
2018-09-19T10:49:31.277Z,60207.86
2018-09-19T10:51:59.429Z,60186.52
2018-09-19T10:54:27.607Z,60189.57
2018-09-19T10:56:56.109Z,60194.66
2018-09-19T10:59:24.248Z,60199.74
2018-09-19T11:01:52.431Z,60180.43
2018-09-19T11:04:20.633Z,60201.77
2018-09-19T11:06:48.826Z,60202.79
2018-09-19T11:09:17.045Z,60183.48
2018-09-19T11:11:45.279Z,60172.30
2018-09-19T11:14:13.447Z,60154.01
2018-09-19T11:16:41.617Z,60120.48
2018-09-19T11:19:09.793Z,60134.70
2018-09-19T11:21:37.967Z,60137.75
2018-09-19T11:24:06.080Z,60121.50
2018-09-19T11:26:34.311Z,60125.56
2018-09-19T11:29:02.436Z,60141.82
2018-09-19T11:31:30.658Z,60159.09
2018-09-19T11:33:58.815Z,60141.82
2018-09-19T11:36:27.002Z,60127.59
2018-09-19T11:38:55.176Z,60128.61
2018-09-19T11:41:23.366Z,60135.72
2018-09-19T11:43:51.531Z,60137.75
2018-09-19T11:46:19.710Z,60131.66
2018-09-19T11:48:47.933Z,60137.75
2018-09-19T11:51:16.087Z,60120.48
2018-09-19T11:53:44.251Z,60131.66
2018-09-19T11:56:12.435Z,60126.57
2018-09-19T11:58:40.616Z,60110.32
2018-09-19T12:01:08.784Z,60126.57
2018-09-19T12:03:36.970Z,60163.16
2018-09-19T12:06:05.168Z,60142.83
2018-09-19T12:08:33.312Z,60136.73
2018-09-19T12:11:01.484Z,60138.77
2018-09-19T12:13:29.739Z,60144.87
2018-09-19T12:15:57.914Z,60153.00
2018-09-19T12:18:26.128Z,60135.72
2018-09-19T12:20:54.299Z,60146.90
2018-09-19T12:23:22.458Z,60147.91
2018-09-19T12:25:50.639Z,60137.75
2018-09-19T12:28:18.806Z,60140.80
2018-09-19T12:30:46.988Z,60137.75
2018-09-19T12:33:15.190Z,60153.00
2018-09-19T12:35:43.373Z,60161.12
2018-09-19T12:38:11.542Z,60150.96
2018-09-19T12:40:39.729Z,60163.16
2018-09-19T12:43:07.916Z,60168.23
2018-09-19T12:45:36.083Z,60155.03
2018-09-19T12:48:04.267Z,60158.07
2018-09-19T12:50:32.442Z,60168.23
2018-09-19T12:53:00.659Z,60143.85
2018-09-19T12:55:28.831Z,60151.98
2018-09-19T12:57:57.103Z,60131.66
2018-09-19T13:00:25.303Z,60135.72
2018-09-19T13:02:53.485Z,60140.80
2018-09-19T13:05:21.659Z,60136.73
2018-09-19T13:07:49.844Z,60146.90
2018-09-19T13:10:18.068Z,60137.75
2018-09-19T13:12:46.250Z,60146.90
2018-09-19T13:15:14.419Z,60158.07
2018-09-19T13:17:42.597Z,60144.87
2018-09-19T13:20:10.768Z,60128.61
2018-09-19T13:22:38.940Z,60147.91
2018-09-19T13:25:07.139Z,60148.93
2018-09-19T13:27:35.380Z,60151.98
2018-09-19T13:30:03.574Z,60148.93
2018-09-19T13:32:31.743Z,60154.01
2018-09-19T13:34:59.931Z,60159.09
2018-09-19T13:37:28.111Z,60155.03
2018-09-19T13:39:56.331Z,60145.88
2018-09-19T13:42:24.820Z,60145.88
2018-09-19T13:44:52.999Z,60148.93
2018-09-19T13:47:21.176Z,60143.85
2018-09-19T13:49:53.228Z,60148.93
2018-09-19T13:52:21.411Z,60155.03
2018-09-19T13:54:49.585Z,60146.90
2018-09-19T13:57:17.775Z,60144.87
2018-09-19T13:59:45.942Z,60151.98
2018-09-19T14:02:14.128Z,60155.03
2018-09-19T14:04:42.300Z,60158.07
2018-09-19T14:07:10.528Z,60148.93
2018-09-19T14:09:38.712Z,60144.87
2018-09-19T14:12:06.579Z,60137.75
2018-09-19T14:14:34.746Z,60140.80
2018-09-19T14:17:02.931Z,60147.91
2018-09-19T14:19:31.119Z,60146.90
2018-09-19T14:21:59.329Z,60155.03
2018-09-19T14:24:27.522Z,60149.95
2018-09-19T14:26:55.679Z,60156.04
2018-09-19T14:29:23.870Z,60140.80
2018-09-19T14:31:52.132Z,60129.63
2018-09-19T14:34:20.309Z,60154.01
2018-09-19T14:36:48.484Z,60163.16
2018-09-19T14:39:16.740Z,60127.59
2018-09-19T14:41:44.914Z,60162.14
2018-09-19T14:44:13.121Z,60144.87
2018-09-19T14:46:41.296Z,60163.16
2018-09-19T14:49:09.483Z,60147.91
2018-09-19T14:51:37.731Z,60151.98
2018-09-19T14:54:06.007Z,60149.95
2018-09-19T14:56:34.140Z,60161.12
2018-09-19T14:59:02.323Z,60165.19
2018-09-19T15:01:30.540Z,60170.27
2018-09-19T15:03:58.719Z,60180.43
2018-09-19T15:06:26.895Z,60158.07
2018-09-19T15:08:55.087Z,60156.04
2018-09-19T15:11:23.451Z,60156.04
2018-09-19T15:13:51.615Z,60154.01
2018-09-19T15:16:19.799Z,60164.17
2018-09-19T15:18:47.987Z,60163.16
2018-09-19T15:21:16.203Z,60155.03
2018-09-19T15:23:44.422Z,60163.16
2018-09-19T15:26:12.723Z,60143.85
2018-09-19T15:28:40.887Z,60153.00
2018-09-19T15:31:09.056Z,60169.25
2018-09-19T15:33:37.231Z,60166.20
2018-09-19T15:36:05.481Z,60188.56
2018-09-19T15:38:33.600Z,60169.25
2018-09-19T15:41:01.796Z,60154.01
2018-09-19T15:43:29.986Z,60182.46
2018-09-19T15:45:58.166Z,60167.22
2018-09-19T15:48:26.385Z,60158.07
2018-09-19T15:50:54.558Z,60150.96
2018-09-19T15:53:22.831Z,60158.07
2018-09-19T15:55:51.053Z,60161.12
2018-09-19T15:58:19.268Z,60172.30
2018-09-19T16:00:47.454Z,60170.27
2018-09-19T16:03:15.660Z,60153.00
2018-09-19T16:05:43.911Z,60173.32
2018-09-19T16:08:12.086Z,60154.01
2018-09-19T16:10:40.271Z,60171.29
2018-09-19T16:13:08.454Z,60169.25
2018-09-19T16:15:36.778Z,60160.11
2018-09-19T16:18:04.960Z,60180.43
2018-09-19T16:20:33.159Z,60180.43
2018-09-19T16:23:01.328Z,60182.46
2018-09-19T16:25:29.503Z,60153.00
2018-09-19T16:27:57.692Z,60167.22
2018-09-19T16:30:25.883Z,60180.43
2018-09-19T16:32:54.101Z,60175.35
2018-09-19T16:35:22.303Z,60166.20
2018-09-19T16:37:50.479Z,60158.07
2018-09-19T16:40:18.770Z,60175.35
2018-09-19T16:42:46.964Z,60182.46
2018-09-19T16:45:15.132Z,60166.20
2018-09-19T16:47:43.324Z,60187.54
2018-09-19T16:50:11.507Z,60178.40
2018-09-19T16:52:39.702Z,60184.49
2018-09-19T16:55:07.900Z,60165.19
2018-09-19T16:57:36.071Z,60199.74
2018-09-19T17:00:04.979Z,60181.45
2018-09-19T17:02:33.160Z,60187.54
2018-09-19T17:05:01.354Z,60192.62
2018-09-19T17:07:29.562Z,60197.70
2018-09-19T17:09:57.736Z,60200.75
2018-09-19T17:12:26.053Z,60197.70
2018-09-19T17:14:54.259Z,60179.41
2018-09-19T17:17:22.431Z,60179.41
2018-09-19T17:19:50.615Z,60177.38
2018-09-19T17:22:18.804Z,60180.43
2018-09-19T17:24:47.017Z,60182.46
2018-09-19T17:27:15.302Z,60190.59
2018-09-19T17:29:43.474Z,60218.03
2018-09-19T17:32:11.689Z,60197.70
2018-09-19T17:34:39.876Z,60205.83
2018-09-19T17:37:08.244Z,60191.61
2018-09-19T17:39:36.419Z,60195.67
2018-09-19T17:42:04.611Z,60210.91
2018-09-19T17:44:32.863Z,60213.96
2018-09-19T17:47:01.044Z,60202.79
2018-09-19T17:49:29.244Z,60209.90
2018-09-19T17:51:57.444Z,60228.19
2018-09-19T17:54:25.627Z,60196.69
2018-09-19T17:56:53.836Z,60205.83
2018-09-19T17:59:22.192Z,60208.88
2018-09-19T18:01:50.367Z,60210.91
2018-09-19T18:04:18.592Z,60202.79
2018-09-19T18:06:46.778Z,60210.91
2018-09-19T18:09:14.970Z,60237.33
2018-09-19T18:11:43.203Z,60219.04
2018-09-19T18:14:11.396Z,60226.16
2018-09-19T18:16:39.583Z,60221.07
2018-09-19T18:19:07.776Z,60214.98
2018-09-19T18:21:35.970Z,60221.07
2018-09-19T18:24:04.214Z,60202.79
2018-09-19T18:26:32.430Z,60222.09
2018-09-19T18:29:00.679Z,60241.40
2018-09-19T18:31:28.913Z,60224.12
2018-09-19T18:33:59.920Z,60254.61
2018-09-19T18:36:28.431Z,60208.88
2018-09-19T18:38:57.096Z,60224.12
2018-09-19T18:41:25.354Z,60222.09
2018-09-19T18:43:53.664Z,60213.96
2018-09-19T18:46:21.948Z,60233.27
2018-09-19T18:48:50.855Z,60237.33
2018-09-19T18:51:19.250Z,60235.30
2018-09-19T18:53:47.771Z,60225.14
2018-09-19T18:56:16.065Z,60243.43
2018-09-19T18:58:44.407Z,60234.29
2018-09-19T19:01:12.706Z,60231.24
2018-09-19T19:03:42.058Z,60228.19
2018-09-19T19:06:10.251Z,60240.38
2018-09-19T19:08:38.660Z,60240.38
2018-09-19T19:11:07.836Z,60246.48
2018-09-19T19:13:36.081Z,60228.19
2018-09-19T19:16:04.299Z,60264.77
2018-09-19T19:18:34.005Z,60235.30
2018-09-19T19:21:02.289Z,60239.36
2018-09-19T19:23:31.255Z,60243.43
2018-09-19T19:25:59.536Z,60244.45
2018-09-19T19:28:27.997Z,60245.46
2018-09-19T19:30:56.192Z,60247.49
2018-09-19T19:33:26.603Z,60251.56
2018-09-19T19:35:54.819Z,60259.69
2018-09-19T19:38:24.088Z,60261.72
2018-09-19T19:40:53.016Z,60259.69
2018-09-19T19:43:21.782Z,60259.69
2018-09-19T19:45:50.078Z,60274.93
2018-09-19T19:48:19.038Z,60240.38
2018-09-19T19:50:47.224Z,60266.80
2018-09-19T19:53:15.517Z,60249.53
2018-09-19T19:55:44.738Z,60267.82
2018-09-19T19:58:13.708Z,60248.51
2018-09-19T20:00:43.624Z,60257.66
2018-09-19T20:03:12.899Z,60281.03
2018-09-19T20:05:42.224Z,60253.59
2018-09-19T20:08:10.364Z,60253.59
2018-09-19T20:10:38.588Z,60277.98
2018-09-19T20:13:07.516Z,60253.59
2018-09-19T20:15:35.669Z,60283.06
2018-09-19T20:18:03.858Z,60269.85
2018-09-19T20:20:31.995Z,60267.82
2018-09-19T20:23:00.147Z,60277.98
2018-09-19T20:25:28.300Z,60270.87
2018-09-19T20:27:56.448Z,60282.04
2018-09-19T20:30:24.616Z,60272.90
2018-09-19T20:32:52.758Z,60286.11
2018-09-19T20:35:20.912Z,60266.80
2018-09-19T20:37:49.054Z,60290.17
2018-09-19T20:40:17.219Z,60282.04
2018-09-19T20:42:45.372Z,60270.87
2018-09-19T20:45:13.540Z,60297.29
2018-09-19T20:47:41.686Z,60287.12
2018-09-19T20:50:09.844Z,60265.79
2018-09-19T20:52:37.996Z,60285.09
2018-09-19T20:55:06.132Z,60285.09
2018-09-19T20:57:34.290Z,60293.22
2018-09-19T21:00:02.465Z,60281.03
2018-09-19T21:02:30.682Z,60318.62
2018-09-19T21:04:58.842Z,60273.91
2018-09-19T21:07:26.997Z,60297.29
2018-09-19T21:09:55.136Z,60287.12
2018-09-19T21:12:23.291Z,60274.93
2018-09-19T21:14:51.427Z,60294.24
2018-09-19T21:17:19.619Z,60290.17
2018-09-19T21:19:47.791Z,60293.22
2018-09-19T21:22:16.128Z,60303.38
2018-09-19T21:24:44.148Z,60296.27
2018-09-19T21:27:12.323Z,60292.21
2018-09-19T21:29:40.628Z,60292.21
2018-09-19T21:32:08.824Z,60294.24
2018-09-19T21:34:37.011Z,60291.19
2018-09-19T21:37:05.191Z,60309.48
2018-09-19T21:39:33.376Z,60292.21
2018-09-19T21:42:01.559Z,60287.12
2018-09-19T21:44:29.735Z,60291.19
2018-09-19T21:46:57.927Z,60286.11
2018-09-19T21:49:26.123Z,60320.66
2018-09-19T21:51:54.324Z,60321.67
2018-09-19T21:54:22.503Z,60312.53
2018-09-19T21:56:50.795Z,60292.21
2018-09-19T21:59:19.019Z,60306.43
2018-09-19T22:01:51.358Z,60297.29
2018-09-19T22:04:19.548Z,60309.48
2018-09-19T22:06:47.723Z,60295.25
2018-09-19T22:09:15.930Z,60306.43
2018-09-19T22:11:44.100Z,60333.87
2018-09-19T22:14:12.280Z,60299.32
2018-09-19T22:16:40.452Z,60292.21
2018-09-19T22:19:08.637Z,60298.30
2018-09-19T22:21:36.819Z,60319.64
2018-09-19T22:24:04.991Z,60305.41
2018-09-19T22:26:33.179Z,60306.43
2018-09-19T22:29:01.391Z,60329.80
2018-09-19T22:31:29.605Z,60330.82
2018-09-19T22:33:57.796Z,60322.69
2018-09-19T22:36:25.979Z,60317.61
2018-09-19T22:38:54.161Z,60312.53
2018-09-19T22:41:22.498Z,60337.93
2018-09-19T22:43:50.928Z,60330.82
2018-09-19T22:46:19.152Z,60332.85
2018-09-19T22:48:47.791Z,60336.91
2018-09-19T22:51:16.003Z,60315.57
2018-09-19T22:53:44.240Z,60307.45
2018-09-19T22:56:12.504Z,60316.59
2018-09-19T22:58:40.687Z,60330.82
2018-09-19T23:01:08.860Z,60332.85
2018-09-19T23:03:37.036Z,60324.72
2018-09-19T23:06:05.272Z,60335.90
2018-09-19T23:08:33.443Z,60338.95
2018-09-19T23:11:01.625Z,60312.53
2018-09-19T23:13:29.819Z,60352.16
2018-09-19T23:15:58.004Z,60322.69
2018-09-19T23:18:26.233Z,60350.12
2018-09-19T23:20:54.367Z,60342.00
2018-09-19T23:23:22.552Z,60329.80
2018-09-19T23:25:50.712Z,60334.88
2018-09-19T23:28:18.882Z,60319.64
2018-09-19T23:30:47.071Z,60318.62
2018-09-19T23:33:15.283Z,60323.71
2018-09-19T23:35:43.463Z,60353.18
2018-09-19T23:38:11.643Z,60326.75
2018-09-19T23:40:39.827Z,60357.24
2018-09-19T23:43:08.005Z,60333.87
2018-09-19T23:45:36.176Z,60333.87
2018-09-19T23:48:04.356Z,60336.91
2018-09-19T23:50:32.535Z,60370.45
2018-09-19T23:53:00.716Z,60333.87
2018-09-19T23:55:28.892Z,60343.01
2018-09-19T23:57:57.113Z,60344.03
